Florence, KY (41042)

12:00 PM EDT on August 30, 2015 (GMT -0400)
APRSWXNET | | Change Station
CLOSE
Current Station
Personal Weather Station
Location: Florence, KY
Elevation: 908 ft
Nearby Weather Stations

Elev 908 ft 38.95 °N, 84.66 °W | Updated 22 minutes ago

Mostly Cloudy
Mostly Cloudy
77 °F
Feels Like 79 °F
N
3
Wind Variable Wind from SSW
Gusts 8.0 mph

Today
High -- | Low -- °F
--% Chance of Precip.
Yesterday
High -- | Low -- °F
Precip. -- in
7:05 AM 8:12 PM
Full, 99% visible
Pressure 30.11 in
Visibility 10.0 miles
Clouds Scattered Clouds 1500 ft
Scattered Clouds 7000 ft
Mostly Cloudy 25000 ft
Heat Index 79 °F
Dew Point 71 °F
Humidity 82%
Rainfall in
Snow Depth Not available.
UV 4 out of 12
Pollen 10.10 out of 12
Air Quality Not available.
Flu Activity Not available.
METAR KCVG 301552Z 19006KT 10SM SCT015 SCT070 BKN250 26/21 A3013 RMK AO2 SLP194 T02560211
Pressure 30.11 in
Visibility 10.0 miles
Clouds Scattered Clouds 1500 ft
Scattered Clouds 7000 ft
Mostly Cloudy 25000 ft
Heat Index 79 °F
Dew Point 71 °F
Humidity 82%
Rainfall in
Snow Depth Not available.
UV 4 out of 12
Pollen 10.10 out of 12
Air Quality Not available.
Flu Activity Not available.
METAR KCVG 301552Z 19006KT 10SM SCT015 SCT070 BKN250 26/21 A3013 RMK AO2 SLP194 T02560211

10-Day Weather Forecast

×

Almanac

Astronomy

Aug. 30, 2015 Rise Set
Actual Time
Civil Twilight
Nautical Twilight
Astronomical Twilight
Moon
Length of Visible Light
Length of Day
Tomorrow will be .
, % of the Moon is Illuminated

Today's Extremes

State Highs State Lows

Community

WunderPhotos

Upload Photos

1,851,002 photos uploaded!

WunderBlogs® & News

Nearby

Air Quality

  Air Quality AQ Index Pollutant
Not available.

Snow Depth

Station Depth Elevation

Earthquake Activity

City Distance Mag. Time & Date
Minimum magnitude displayed is 2.5.

Coastal Water Temperatures

Place Temperature

Stations

Nearby Weather Stations

Station Location Temp. Windchill Dew Point Humidity Wind Precip. Elev Updated Type